Portada
METAR-TAF:

METAR-TAF

Aeropuertos :

Calhoun, Georgia, Estados Unidos

latitud: 34-27-20N, longitud: 084-56-21W, altitud: 198 m

Observación

El informe se hizo hace 10 minutos, a las 19:55 UTC
Viento 4 kt del oeste
Temperatura 11°C
Humedad 76%
Presión 1014 hPa
Visibilidad: 16.1 km
Nubes dispersas a una altura de 2200 ft
Cielo nuboso a una altura de 2900 ft
Cielo cubierto a una altura de 4000 ft

METAR: KCZL 271955Z AUTO 28004KT 10SM SCT022 BKN029 OVC040 11/07 A2994 RMK AO2

Hora: 15:05 (20:05 UTC)


TAF: falta

Observaciones y pronósticos meteorológicos de más de 4000 aeropuertos (mensajes METAR y TAF).

Los puntos amarillos y rojos representan las estaciones disponibles.

Ponga el ratón en el punto deseado para ver el nombre de la estación.

Haga clic para ver las observaciones y los pronósticos meteorológicos.

Para cambiar el mapa : haga clic en los botones verdes con una cruz de color negro para hacer un zoom, en el botón verde con un guión para alejar o en las flechas verdes para mapas adyacentes.


METAR-TAF: